sensor_id;sensor_type;location;lat;lon;timestamp;P1;durP1;ratioP1;P2;durP2;ratioP2
15293;SDS011;74171;52.534;13.436;2024-03-06T00:01:14;19.08;;;13.32;;
15293;SDS011;74171;52.534;13.436;2024-03-06T00:03:17;18.48;;;13.48;;
15293;SDS011;74171;52.534;13.436;2024-03-06T00:05:20;19.83;;;13.07;;
15293;SDS011;74171;52.534;13.436;2024-03-06T00:07:25;19.85;;;14.13;;
15293;SDS011;74171;52.534;13.436;2024-03-06T00:09:28;20.73;;;13.20;;
15293;SDS011;74171;52.534;13.436;2024-03-06T00:11:31;19.33;;;12.95;;
15293;SDS011;74171;52.534;13.436;2024-03-06T00:13:37;20.75;;;14.20;;
15293;SDS011;74171;52.534;13.436;2024-03-06T00:15:39;19.35;;;13.18;;
15293;SDS011;74171;52.534;13.436;2024-03-06T00:17:42;17.77;;;12.85;;
15293;SDS011;74171;52.534;13.436;2024-03-06T00:19:45;27.67;;;16.42;;
15293;SDS011;74171;52.534;13.436;2024-03-06T00:21:48;20.70;;;15.02;;
15293;SDS011;74171;52.534;13.436;2024-03-06T00:23:53;33.85;;;21.27;;
15293;SDS011;74171;52.534;13.436;2024-03-06T00:25:56;22.80;;;15.27;;
15293;SDS011;74171;52.534;13.436;2024-03-06T00:27:59;23.05;;;14.30;;
15293;SDS011;74171;52.534;13.436;2024-03-06T00:30:02;17.98;;;13.27;;
15293;SDS011;74171;52.534;13.436;2024-03-06T00:32:05;22.00;;;13.77;;
15293;SDS011;74171;52.534;13.436;2024-03-06T00:34:10;18.60;;;13.10;;
15293;SDS011;74171;52.534;13.436;2024-03-06T00:36:15;21.58;;;13.88;;
15293;SDS011;74171;52.534;13.436;2024-03-06T00:38:18;20.00;;;13.25;;
15293;SDS011;74171;52.534;13.436;2024-03-06T00:40:22;21.63;;;13.80;;
15293;SDS011;74171;52.534;13.436;2024-03-06T00:42:25;20.48;;;13.60;;
15293;SDS011;74171;52.534;13.436;2024-03-06T00:44:28;21.48;;;13.35;;
15293;SDS011;74171;52.534;13.436;2024-03-06T00:46:31;18.83;;;13.45;;
15293;SDS011;74171;52.534;13.436;2024-03-06T00:48:34;19.63;;;13.27;;
15293;SDS011;74171;52.534;13.436;2024-03-06T00:50:41;21.40;;;13.40;;
15293;SDS011;74171;52.534;13.436;2024-03-06T00:52:44;21.27;;;12.90;;
15293;SDS011;74171;52.534;13.436;2024-03-06T00:54:47;23.10;;;14.00;;
15293;SDS011;74171;52.534;13.436;2024-03-06T00:56:52;18.38;;;13.50;;
15293;SDS011;74171;52.534;13.436;2024-03-06T00:58:55;21.23;;;13.27;;
15293;SDS011;74171;52.534;13.436;2024-03-06T01:00:58;20.10;;;13.82;;
15293;SDS011;74171;52.534;13.436;2024-03-06T01:03:01;19.30;;;13.18;;
15293;SDS011;74171;52.534;13.436;2024-03-06T01:05:04;20.58;;;14.57;;
15293;SDS011;74171;52.534;13.436;2024-03-06T01:07:08;20.95;;;13.75;;
15293;SDS011;74171;52.534;13.436;2024-03-06T01:09:11;23.27;;;13.27;;
15293;SDS011;74171;52.534;13.436;2024-03-06T01:11:14;22.30;;;13.38;;
15293;SDS011;74171;52.534;13.436;2024-03-06T01:13:18;17.70;;;12.50;;
15293;SDS011;74171;52.534;13.436;2024-03-06T01:15:22;20.92;;;13.65;;
15293;SDS011;74171;52.534;13.436;2024-03-06T01:17:25;21.80;;;13.48;;
15293;SDS011;74171;52.534;13.436;2024-03-06T01:19:28;21.13;;;12.50;;
15293;SDS011;74171;52.534;13.436;2024-03-06T01:21:31;21.88;;;14.27;;
15293;SDS011;74171;52.534;13.436;2024-03-06T01:23:35;20.63;;;13.52;;
15293;SDS011;74171;52.534;13.436;2024-03-06T01:25:41;21.40;;;13.63;;
15293;SDS011;74171;52.534;13.436;2024-03-06T01:27:44;19.58;;;13.18;;
15293;SDS011;74171;52.534;13.436;2024-03-06T01:29:48;18.83;;;12.95;;
15293;SDS011;74171;52.534;13.436;2024-03-06T01:31:50;22.55;;;12.45;;
15293;SDS011;74171;52.534;13.436;2024-03-06T01:33:54;20.92;;;13.75;;
15293;SDS011;74171;52.534;13.436;2024-03-06T01:35:57;21.00;;;13.80;;
15293;SDS011;74171;52.534;13.436;2024-03-06T01:38:00;21.50;;;13.82;;
15293;SDS011;74171;52.534;13.436;2024-03-06T01:40:04;19.92;;;13.65;;
15293;SDS011;74171;52.534;13.436;2024-03-06T01:42:08;20.88;;;13.65;;
15293;SDS011;74171;52.534;13.436;2024-03-06T01:44:11;19.58;;;12.60;;
15293;SDS011;74171;52.534;13.436;2024-03-06T01:46:15;20.95;;;13.43;;
15293;SDS011;74171;52.534;13.436;2024-03-06T01:48:19;19.75;;;13.30;;
15293;SDS011;74171;52.534;13.436;2024-03-06T01:50:23;20.45;;;14.77;;
15293;SDS011;74171;52.534;13.436;2024-03-06T01:52:26;17.70;;;12.68;;
15293;SDS011;74171;52.534;13.436;2024-03-06T01:54:29;20.63;;;14.45;;
15293;SDS011;74171;52.534;13.436;2024-03-06T01:56:32;18.35;;;13.02;;
15293;SDS011;74171;52.534;13.436;2024-03-06T01:58:35;19.77;;;13.18;;
15293;SDS011;74171;52.534;13.436;2024-03-06T02:00:38;19.52;;;14.23;;
15293;SDS011;74171;52.534;13.436;2024-03-06T02:02:43;20.65;;;13.00;;
15293;SDS011;74171;52.534;13.436;2024-03-06T02:04:46;21.00;;;13.95;;
15293;SDS011;74171;52.534;13.436;2024-03-06T02:06:48;20.90;;;14.43;;
15293;SDS011;74171;52.534;13.436;2024-03-06T02:08:51;21.17;;;12.70;;
15293;SDS011;74171;52.534;13.436;2024-03-06T02:10:55;23.15;;;14.77;;
15293;SDS011;74171;52.534;13.436;2024-03-06T02:12:59;21.02;;;13.80;;
15293;SDS011;74171;52.534;13.436;2024-03-06T02:15:03;21.83;;;13.82;;
15293;SDS011;74171;52.534;13.436;2024-03-06T02:17:05;19.95;;;14.13;;
15293;SDS011;74171;52.534;13.436;2024-03-06T02:19:10;20.85;;;13.40;;
15293;SDS011;74171;52.534;13.436;2024-03-06T02:21:15;22.83;;;14.15;;
15293;SDS011;74171;52.534;13.436;2024-03-06T02:23:17;24.05;;;14.30;;
15293;SDS011;74171;52.534;13.436;2024-03-06T02:25:22;22.30;;;14.90;;
15293;SDS011;74171;52.534;13.436;2024-03-06T02:27:25;19.50;;;13.95;;
15293;SDS011;74171;52.534;13.436;2024-03-06T02:29:28;23.83;;;14.00;;
15293;SDS011;74171;52.534;13.436;2024-03-06T02:31:32;18.50;;;13.25;;
15293;SDS011;74171;52.534;13.436;2024-03-06T02:33:35;23.85;;;14.80;;
15293;SDS011;74171;52.534;13.436;2024-03-06T02:35:38;23.25;;;14.77;;
15293;SDS011;74171;52.534;13.436;2024-03-06T02:37:43;22.15;;;14.75;;
15293;SDS011;74171;52.534;13.436;2024-03-06T02:39:45;23.40;;;15.30;;
15293;SDS011;74171;52.534;13.436;2024-03-06T02:41:48;22.20;;;14.82;;
15293;SDS011;74171;52.534;13.436;2024-03-06T02:43:51;23.80;;;15.10;;
15293;SDS011;74171;52.534;13.436;2024-03-06T02:45:54;22.45;;;15.02;;
15293;SDS011;74171;52.534;13.436;2024-03-06T02:47:57;21.30;;;14.23;;
15293;SDS011;74171;52.534;13.436;2024-03-06T02:50:00;21.13;;;14.98;;
15293;SDS011;74171;52.534;13.436;2024-03-06T02:54:16;21.10;;;14.63;;
15293;SDS011;74171;52.534;13.436;2024-03-06T02:56:19;23.83;;;14.60;;
15293;SDS011;74171;52.534;13.436;2024-03-06T02:58:21;21.02;;;14.43;;
15293;SDS011;74171;52.534;13.436;2024-03-06T03:00:24;22.05;;;15.23;;
15293;SDS011;74171;52.534;13.436;2024-03-06T03:02:27;23.02;;;15.20;;
15293;SDS011;74171;52.534;13.436;2024-03-06T03:04:30;21.85;;;14.55;;
15293;SDS011;74171;52.534;13.436;2024-03-06T03:06:33;27.15;;;14.60;;
15293;SDS011;74171;52.534;13.436;2024-03-06T03:08:36;22.30;;;15.57;;
15293;SDS011;74171;52.534;13.436;2024-03-06T03:10:40;27.40;;;15.32;;
15293;SDS011;74171;52.534;13.436;2024-03-06T03:12:43;23.42;;;15.32;;
15293;SDS011;74171;52.534;13.436;2024-03-06T03:14:47;25.38;;;15.00;;
15293;SDS011;74171;52.534;13.436;2024-03-06T03:16:50;24.23;;;15.90;;
15293;SDS011;74171;52.534;13.436;2024-03-06T03:18:53;25.88;;;15.93;;
15293;SDS011;74171;52.534;13.436;2024-03-06T03:20:56;25.52;;;16.13;;
15293;SDS011;74171;52.534;13.436;2024-03-06T03:22:59;24.58;;;16.42;;
15293;SDS011;74171;52.534;13.436;2024-03-06T03:25:03;25.75;;;15.40;;
15293;SDS011;74171;52.534;13.436;2024-03-06T03:27:09;26.20;;;15.57;;
15293;SDS011;74171;52.534;13.436;2024-03-06T03:29:12;27.40;;;16.15;;
15293;SDS011;74171;52.534;13.436;2024-03-06T03:31:15;30.73;;;17.33;;
15293;SDS011;74171;52.534;13.436;2024-03-06T03:33:18;31.40;;;17.05;;
15293;SDS011;74171;52.534;13.436;2024-03-06T03:35:21;29.70;;;16.85;;
15293;SDS011;74171;52.534;13.436;2024-03-06T03:37:26;26.15;;;15.65;;
15293;SDS011;74171;52.534;13.436;2024-03-06T03:39:29;39.78;;;17.58;;
15293;SDS011;74171;52.534;13.436;2024-03-06T03:41:32;27.42;;;16.15;;
15293;SDS011;74171;52.534;13.436;2024-03-06T03:43:37;29.05;;;17.10;;
15293;SDS011;74171;52.534;13.436;2024-03-06T03:45:41;30.98;;;16.95;;
15293;SDS011;74171;52.534;13.436;2024-03-06T03:47:44;30.33;;;17.52;;
15293;SDS011;74171;52.534;13.436;2024-03-06T03:49:50;26.33;;;16.10;;
15293;SDS011;74171;52.534;13.436;2024-03-06T03:52:10;29.40;;;15.93;;
15293;SDS011;74171;52.534;13.436;2024-03-06T03:54:13;27.63;;;14.93;;
15293;SDS011;74171;52.534;13.436;2024-03-06T03:56:16;23.35;;;15.98;;
15293;SDS011;74171;52.534;13.436;2024-03-06T03:58:19;24.17;;;15.90;;
15293;SDS011;74171;52.534;13.436;2024-03-06T04:00:23;25.05;;;14.32;;
15293;SDS011;74171;52.534;13.436;2024-03-06T04:02:26;25.63;;;15.77;;
15293;SDS011;74171;52.534;13.436;2024-03-06T04:04:29;27.92;;;16.60;;
15293;SDS011;74171;52.534;13.436;2024-03-06T04:06:32;26.75;;;15.73;;
15293;SDS011;74171;52.534;13.436;2024-03-06T04:08:36;25.58;;;16.02;;
15293;SDS011;74171;52.534;13.436;2024-03-06T04:10:39;25.85;;;15.70;;
15293;SDS011;74171;52.534;13.436;2024-03-06T04:12:47;29.20;;;16.77;;
15293;SDS011;74171;52.534;13.436;2024-03-06T04:14:50;24.45;;;15.25;;
15293;SDS011;74171;52.534;13.436;2024-03-06T04:16:56;24.83;;;15.52;;
15293;SDS011;74171;52.534;13.436;2024-03-06T04:18:59;23.95;;;15.38;;
15293;SDS011;74171;52.534;13.436;2024-03-06T04:21:03;27.05;;;15.38;;
15293;SDS011;74171;52.534;13.436;2024-03-06T04:23:06;29.77;;;15.88;;
15293;SDS011;74171;52.534;13.436;2024-03-06T04:25:10;31.13;;;16.13;;
15293;SDS011;74171;52.534;13.436;2024-03-06T04:27:14;24.05;;;15.68;;
15293;SDS011;74171;52.534;13.436;2024-03-06T04:29:18;23.38;;;15.90;;
15293;SDS011;74171;52.534;13.436;2024-03-06T04:31:21;25.75;;;15.98;;
15293;SDS011;74171;52.534;13.436;2024-03-06T04:33:25;24.15;;;15.25;;
15293;SDS011;74171;52.534;13.436;2024-03-06T04:35:28;22.55;;;15.00;;
15293;SDS011;74171;52.534;13.436;2024-03-06T04:37:32;28.02;;;15.75;;
15293;SDS011;74171;52.534;13.436;2024-03-06T04:39:35;25.75;;;16.02;;
15293;SDS011;74171;52.534;13.436;2024-03-06T04:41:36;24.80;;;14.75;;
15293;SDS011;74171;52.534;13.436;2024-03-06T04:43:40;23.30;;;15.75;;
15293;SDS011;74171;52.534;13.436;2024-03-06T04:45:44;24.88;;;16.42;;
15293;SDS011;74171;52.534;13.436;2024-03-06T04:47:47;23.33;;;16.45;;
15293;SDS011;74171;52.534;13.436;2024-03-06T04:49:51;27.88;;;17.17;;
15293;SDS011;74171;52.534;13.436;2024-03-06T04:51:54;25.85;;;16.55;;
15293;SDS011;74171;52.534;13.436;2024-03-06T04:53:57;26.98;;;16.20;;
15293;SDS011;74171;52.534;13.436;2024-03-06T04:56:00;26.08;;;16.63;;
15293;SDS011;74171;52.534;13.436;2024-03-06T04:58:04;28.63;;;17.65;;
15293;SDS011;74171;52.534;13.436;2024-03-06T05:00:08;29.23;;;17.27;;
15293;SDS011;74171;52.534;13.436;2024-03-06T05:02:12;29.88;;;17.75;;
15293;SDS011;74171;52.534;13.436;2024-03-06T05:04:15;26.08;;;18.58;;
15293;SDS011;74171;52.534;13.436;2024-03-06T05:06:38;27.00;;;18.27;;
15293;SDS011;74171;52.534;13.436;2024-03-06T05:08:58;27.35;;;17.10;;
15293;SDS011;74171;52.534;13.436;2024-03-06T05:11:18;25.55;;;16.83;;
15293;SDS011;74171;52.534;13.436;2024-03-06T05:13:39;28.75;;;17.35;;
15293;SDS011;74171;52.534;13.436;2024-03-06T05:15:59;27.70;;;16.95;;
15293;SDS011;74171;52.534;13.436;2024-03-06T05:18:20;27.25;;;16.70;;
15293;SDS011;74171;52.534;13.436;2024-03-06T05:20:40;29.05;;;18.13;;
15293;SDS011;74171;52.534;13.436;2024-03-06T05:23:03;28.45;;;16.88;;
15293;SDS011;74171;52.534;13.436;2024-03-06T05:25:24;29.95;;;17.27;;
15293;SDS011;74171;52.534;13.436;2024-03-06T05:27:44;27.23;;;17.33;;
15293;SDS011;74171;52.534;13.436;2024-03-06T05:30:05;29.58;;;17.38;;
15293;SDS011;74171;52.534;13.436;2024-03-06T05:32:27;27.35;;;17.63;;
15293;SDS011;74171;52.534;13.436;2024-03-06T05:34:47;25.95;;;17.05;;
15293;SDS011;74171;52.534;13.436;2024-03-06T05:37:08;29.08;;;18.30;;
15293;SDS011;74171;52.534;13.436;2024-03-06T05:39:30;26.60;;;16.75;;
15293;SDS011;74171;52.534;13.436;2024-03-06T05:41:50;27.92;;;17.60;;
15293;SDS011;74171;52.534;13.436;2024-03-06T05:44:14;29.30;;;18.05;;
15293;SDS011;74171;52.534;13.436;2024-03-06T05:46:34;26.83;;;17.48;;
15293;SDS011;74171;52.534;13.436;2024-03-06T05:48:55;30.15;;;18.02;;
15293;SDS011;74171;52.534;13.436;2024-03-06T05:51:15;28.48;;;17.27;;
15293;SDS011;74171;52.534;13.436;2024-03-06T05:53:36;29.08;;;17.85;;
15293;SDS011;74171;52.534;13.436;2024-03-06T05:56:00;27.92;;;18.70;;
15293;SDS011;74171;52.534;13.436;2024-03-06T05:58:21;28.52;;;18.08;;
15293;SDS011;74171;52.534;13.436;2024-03-06T06:00:24;33.70;;;19.40;;
15293;SDS011;74171;52.534;13.436;2024-03-06T06:02:28;32.22;;;19.35;;
15293;SDS011;74171;52.534;13.436;2024-03-06T06:04:31;32.45;;;18.42;;
15293;SDS011;74171;52.534;13.436;2024-03-06T06:06:48;30.90;;;19.08;;
15293;SDS011;74171;52.534;13.436;2024-03-06T06:08:51;29.90;;;18.90;;
15293;SDS011;74171;52.534;13.436;2024-03-06T06:10:54;29.02;;;18.83;;
15293;SDS011;74171;52.534;13.436;2024-03-06T06:12:59;29.40;;;18.88;;
15293;SDS011;74171;52.534;13.436;2024-03-06T06:15:02;28.90;;;18.60;;
15293;SDS011;74171;52.534;13.436;2024-03-06T06:17:06;31.42;;;20.00;;
15293;SDS011;74171;52.534;13.436;2024-03-06T06:19:09;27.60;;;18.77;;
15293;SDS011;74171;52.534;13.436;2024-03-06T06:21:13;33.95;;;19.92;;
15293;SDS011;74171;52.534;13.436;2024-03-06T06:23:17;35.67;;;20.75;;
15293;SDS011;74171;52.534;13.436;2024-03-06T06:25:20;29.25;;;18.58;;
15293;SDS011;74171;52.534;13.436;2024-03-06T06:27:23;28.50;;;18.50;;
15293;SDS011;74171;52.534;13.436;2024-03-06T06:29:28;30.95;;;18.95;;
15293;SDS011;74171;52.534;13.436;2024-03-06T06:31:41;30.42;;;19.13;;
15293;SDS011;74171;52.534;13.436;2024-03-06T06:33:48;29.85;;;18.58;;
15293;SDS011;74171;52.534;13.436;2024-03-06T06:35:53;29.13;;;17.98;;
15293;SDS011;74171;52.534;13.436;2024-03-06T06:37:55;25.27;;;16.33;;
15293;SDS011;74171;52.534;13.436;2024-03-06T06:40:01;29.05;;;16.42;;
15293;SDS011;74171;52.534;13.436;2024-03-06T06:42:08;27.90;;;16.13;;
15293;SDS011;74171;52.534;13.436;2024-03-06T06:44:12;29.90;;;16.65;;
15293;SDS011;74171;52.534;13.436;2024-03-06T06:46:16;23.00;;;15.30;;
15293;SDS011;74171;52.534;13.436;2024-03-06T06:48:20;25.20;;;15.63;;
15293;SDS011;74171;52.534;13.436;2024-03-06T06:50:26;24.77;;;14.32;;
15293;SDS011;74171;52.534;13.436;2024-03-06T06:52:30;22.50;;;14.45;;
15293;SDS011;74171;52.534;13.436;2024-03-06T06:54:36;24.15;;;15.07;;
15293;SDS011;74171;52.534;13.436;2024-03-06T06:56:38;24.27;;;14.55;;
15293;SDS011;74171;52.534;13.436;2024-03-06T06:58:42;20.67;;;14.27;;
15293;SDS011;74171;52.534;13.436;2024-03-06T07:00:57;22.95;;;14.82;;
15293;SDS011;74171;52.534;13.436;2024-03-06T07:03:01;20.70;;;14.32;;
15293;SDS011;74171;52.534;13.436;2024-03-06T07:05:04;21.90;;;14.73;;
15293;SDS011;74171;52.534;13.436;2024-03-06T07:07:08;21.35;;;13.90;;
15293;SDS011;74171;52.534;13.436;2024-03-06T07:09:11;22.40;;;14.25;;
15293;SDS011;74171;52.534;13.436;2024-03-06T07:11:16;20.00;;;13.63;;
15293;SDS011;74171;52.534;13.436;2024-03-06T07:13:20;20.95;;;14.25;;
15293;SDS011;74171;52.534;13.436;2024-03-06T07:15:23;21.42;;;13.70;;
15293;SDS011;74171;52.534;13.436;2024-03-06T07:17:26;22.77;;;13.98;;
15293;SDS011;74171;52.534;13.436;2024-03-06T07:19:31;20.27;;;13.52;;
15293;SDS011;74171;52.534;13.436;2024-03-06T07:21:34;32.72;;;14.27;;
15293;SDS011;74171;52.534;13.436;2024-03-06T07:23:37;22.75;;;14.40;;
15293;SDS011;74171;52.534;13.436;2024-03-06T07:25:40;23.13;;;13.60;;
15293;SDS011;74171;52.534;13.436;2024-03-06T07:27:43;22.02;;;14.70;;
15293;SDS011;74171;52.534;13.436;2024-03-06T07:29:45;21.00;;;14.50;;
15293;SDS011;74171;52.534;13.436;2024-03-06T07:31:49;25.02;;;14.88;;
15293;SDS011;74171;52.534;13.436;2024-03-06T07:33:51;24.73;;;14.18;;
15293;SDS011;74171;52.534;13.436;2024-03-06T07:35:55;22.17;;;14.45;;
15293;SDS011;74171;52.534;13.436;2024-03-06T07:37:58;17.95;;;13.80;;
15293;SDS011;74171;52.534;13.436;2024-03-06T07:40:01;18.75;;;13.85;;
15293;SDS011;74171;52.534;13.436;2024-03-06T07:42:04;17.70;;;13.00;;
15293;SDS011;74171;52.534;13.436;2024-03-06T07:44:07;20.80;;;14.27;;
15293;SDS011;74171;52.534;13.436;2024-03-06T07:46:11;21.42;;;14.50;;
15293;SDS011;74171;52.534;13.436;2024-03-06T07:48:14;22.35;;;14.35;;
15293;SDS011;74171;52.534;13.436;2024-03-06T07:50:17;21.42;;;13.95;;
15293;SDS011;74171;52.534;13.436;2024-03-06T07:52:22;19.73;;;13.45;;
15293;SDS011;74171;52.534;13.436;2024-03-06T07:54:24;18.85;;;12.65;;
15293;SDS011;74171;52.534;13.436;2024-03-06T07:56:27;21.45;;;12.60;;
15293;SDS011;74171;52.534;13.436;2024-03-06T07:58:30;17.83;;;12.77;;
15293;SDS011;74171;52.534;13.436;2024-03-06T08:00:33;22.30;;;12.60;;
15293;SDS011;74171;52.534;13.436;2024-03-06T08:02:35;20.65;;;13.57;;
15293;SDS011;74171;52.534;13.436;2024-03-06T08:04:40;16.70;;;12.20;;
15293;SDS011;74171;52.534;13.436;2024-03-06T08:06:43;19.50;;;12.10;;
15293;SDS011;74171;52.534;13.436;2024-03-06T08:08:47;20.25;;;12.00;;
15293;SDS011;74171;52.534;13.436;2024-03-06T08:10:50;19.92;;;10.98;;
15293;SDS011;74171;52.534;13.436;2024-03-06T08:12:53;15.80;;;11.75;;
15293;SDS011;74171;52.534;13.436;2024-03-06T08:14:55;17.77;;;11.88;;
15293;SDS011;74171;52.534;13.436;2024-03-06T08:16:57;15.25;;;10.38;;
15293;SDS011;74171;52.534;13.436;2024-03-06T08:19:00;18.67;;;11.88;;
15293;SDS011;74171;52.534;13.436;2024-03-06T08:21:03;19.23;;;11.65;;
15293;SDS011;74171;52.534;13.436;2024-03-06T08:23:08;18.30;;;12.60;;
15293;SDS011;74171;52.534;13.436;2024-03-06T08:25:12;19.20;;;11.63;;
15293;SDS011;74171;52.534;13.436;2024-03-06T08:27:15;16.85;;;11.73;;
15293;SDS011;74171;52.534;13.436;2024-03-06T08:29:17;18.10;;;10.95;;
15293;SDS011;74171;52.534;13.436;2024-03-06T08:31:20;14.55;;;9.70;;
15293;SDS011;74171;52.534;13.436;2024-03-06T08:33:23;16.23;;;11.03;;
15293;SDS011;74171;52.534;13.436;2024-03-06T08:35:26;15.30;;;9.80;;
15293;SDS011;74171;52.534;13.436;2024-03-06T08:37:29;15.50;;;9.82;;
15293;SDS011;74171;52.534;13.436;2024-03-06T08:39:32;15.20;;;10.18;;
15293;SDS011;74171;52.534;13.436;2024-03-06T08:41:37;17.80;;;9.73;;
15293;SDS011;74171;52.534;13.436;2024-03-06T08:43:40;15.48;;;10.20;;
15293;SDS011;74171;52.534;13.436;2024-03-06T08:45:42;13.77;;;10.40;;
15293;SDS011;74171;52.534;13.436;2024-03-06T08:47:45;15.47;;;11.23;;
15293;SDS011;74171;52.534;13.436;2024-03-06T08:49:49;13.17;;;9.50;;
15293;SDS011;74171;52.534;13.436;2024-03-06T08:51:52;19.63;;;9.47;;
15293;SDS011;74171;52.534;13.436;2024-03-06T08:53:55;14.07;;;9.07;;
15293;SDS011;74171;52.534;13.436;2024-03-06T08:55:59;12.03;;;8.00;;
15293;SDS011;74171;52.534;13.436;2024-03-06T08:58:06;11.13;;;8.50;;
15293;SDS011;74171;52.534;13.436;2024-03-06T09:00:10;13.30;;;8.13;;
15293;SDS011;74171;52.534;13.436;2024-03-06T09:02:17;12.07;;;9.13;;
15293;SDS011;74171;52.534;13.436;2024-03-06T09:04:21;9.90;;;7.20;;
15293;SDS011;74171;52.534;13.436;2024-03-06T09:06:24;12.23;;;8.13;;
15293;SDS011;74171;52.534;13.436;2024-03-06T09:08:28;13.40;;;7.90;;
15293;SDS011;74171;52.534;13.436;2024-03-06T09:10:31;9.53;;;7.40;;
15293;SDS011;74171;52.534;13.436;2024-03-06T09:12:36;10.37;;;7.20;;
15293;SDS011;74171;52.534;13.436;2024-03-06T09:14:39;9.83;;;7.83;;
15293;SDS011;74171;52.534;13.436;2024-03-06T09:16:43;13.30;;;9.10;;
15293;SDS011;74171;52.534;13.436;2024-03-06T09:18:46;11.10;;;8.83;;
15293;SDS011;74171;52.534;13.436;2024-03-06T09:20:48;14.53;;;8.60;;
15293;SDS011;74171;52.534;13.436;2024-03-06T09:22:52;10.63;;;8.00;;
15293;SDS011;74171;52.534;13.436;2024-03-06T09:24:55;11.53;;;8.47;;
15293;SDS011;74171;52.534;13.436;2024-03-06T09:26:57;11.30;;;8.17;;
15293;SDS011;74171;52.534;13.436;2024-03-06T09:29:01;9.50;;;6.97;;
15293;SDS011;74171;52.534;13.436;2024-03-06T09:31:05;11.30;;;7.50;;
15293;SDS011;74171;52.534;13.436;2024-03-06T09:33:08;8.90;;;6.73;;
15293;SDS011;74171;52.534;13.436;2024-03-06T09:35:11;9.90;;;7.37;;
15293;SDS011;74171;52.534;13.436;2024-03-06T09:37:18;10.83;;;7.77;;
15293;SDS011;74171;52.534;13.436;2024-03-06T09:39:21;10.97;;;7.70;;
15293;SDS011;74171;52.534;13.436;2024-03-06T09:41:24;10.47;;;7.40;;
15293;SDS011;74171;52.534;13.436;2024-03-06T09:43:27;9.37;;;6.70;;
15293;SDS011;74171;52.534;13.436;2024-03-06T09:45:32;10.53;;;8.03;;
15293;SDS011;74171;52.534;13.436;2024-03-06T09:47:38;13.37;;;8.60;;
15293;SDS011;74171;52.534;13.436;2024-03-06T09:49:41;11.77;;;8.30;;
15293;SDS011;74171;52.534;13.436;2024-03-06T09:51:45;10.40;;;7.70;;
15293;SDS011;74171;52.534;13.436;2024-03-06T09:53:51;10.47;;;7.73;;
15293;SDS011;74171;52.534;13.436;2024-03-06T09:55:54;9.97;;;7.40;;
15293;SDS011;74171;52.534;13.436;2024-03-06T09:57:59;10.90;;;8.50;;
15293;SDS011;74171;52.534;13.436;2024-03-06T10:00:05;13.20;;;9.23;;
15293;SDS011;74171;52.534;13.436;2024-03-06T10:02:18;10.63;;;7.67;;
15293;SDS011;74171;52.534;13.436;2024-03-06T10:04:26;11.83;;;7.80;;
15293;SDS011;74171;52.534;13.436;2024-03-06T10:06:29;12.37;;;8.10;;
15293;SDS011;74171;52.534;13.436;2024-03-06T10:08:33;12.43;;;8.23;;
15293;SDS011;74171;52.534;13.436;2024-03-06T10:10:36;10.07;;;7.33;;
15293;SDS011;74171;52.534;13.436;2024-03-06T10:12:39;10.77;;;7.70;;
15293;SDS011;74171;52.534;13.436;2024-03-06T10:14:47;11.17;;;8.07;;
15293;SDS011;74171;52.534;13.436;2024-03-06T10:16:52;11.03;;;7.73;;
15293;SDS011;74171;52.534;13.436;2024-03-06T10:18:55;10.30;;;6.87;;
15293;SDS011;74171;52.534;13.436;2024-03-06T10:21:00;10.13;;;7.87;;
15293;SDS011;74171;52.534;13.436;2024-03-06T10:23:03;10.50;;;7.93;;
15293;SDS011;74171;52.534;13.436;2024-03-06T10:25:07;11.70;;;8.93;;
15293;SDS011;74171;52.534;13.436;2024-03-06T10:27:13;11.33;;;8.30;;
15293;SDS011;74171;52.534;13.436;2024-03-06T10:29:17;10.53;;;7.70;;
15293;SDS011;74171;52.534;13.436;2024-03-06T10:31:26;10.60;;;7.80;;
15293;SDS011;74171;52.534;13.436;2024-03-06T10:33:29;10.40;;;7.97;;
15293;SDS011;74171;52.534;13.436;2024-03-06T10:35:34;9.33;;;7.37;;
15293;SDS011;74171;52.534;13.436;2024-03-06T10:37:40;10.47;;;8.63;;
15293;SDS011;74171;52.534;13.436;2024-03-06T10:39:45;12.57;;;8.50;;
15293;SDS011;74171;52.534;13.436;2024-03-06T10:41:51;13.37;;;9.20;;
15293;SDS011;74171;52.534;13.436;2024-03-06T10:43:55;11.00;;;8.30;;
15293;SDS011;74171;52.534;13.436;2024-03-06T10:46:00;17.00;;;10.03;;
15293;SDS011;74171;52.534;13.436;2024-03-06T10:48:03;11.77;;;8.73;;
15293;SDS011;74171;52.534;13.436;2024-03-06T10:50:08;13.03;;;9.67;;
15293;SDS011;74171;52.534;13.436;2024-03-06T10:52:11;11.97;;;8.80;;
15293;SDS011;74171;52.534;13.436;2024-03-06T10:54:19;12.63;;;9.53;;
15293;SDS011;74171;52.534;13.436;2024-03-06T10:56:24;13.77;;;9.70;;
15293;SDS011;74171;52.534;13.436;2024-03-06T10:58:27;13.07;;;10.23;;
15293;SDS011;74171;52.534;13.436;2024-03-06T11:00:31;11.47;;;9.07;;
15293;SDS011;74171;52.534;13.436;2024-03-06T11:02:35;11.73;;;8.70;;
15293;SDS011;74171;52.534;13.436;2024-03-06T11:04:39;12.43;;;8.40;;
15293;SDS011;74171;52.534;13.436;2024-03-06T11:06:42;12.43;;;9.20;;
15293;SDS011;74171;52.534;13.436;2024-03-06T11:08:44;10.87;;;8.77;;
15293;SDS011;74171;52.534;13.436;2024-03-06T11:10:48;12.67;;;8.93;;
15293;SDS011;74171;52.534;13.436;2024-03-06T11:12:53;12.20;;;10.07;;
15293;SDS011;74171;52.534;13.436;2024-03-06T11:14:56;14.03;;;8.83;;
15293;SDS011;74171;52.534;13.436;2024-03-06T11:17:00;13.17;;;9.60;;
15293;SDS011;74171;52.534;13.436;2024-03-06T11:19:04;13.63;;;9.80;;
15293;SDS011;74171;52.534;13.436;2024-03-06T11:23:33;13.43;;;9.83;;
15293;SDS011;74171;52.534;13.436;2024-03-06T11:28:10;13.47;;;10.23;;
15293;SDS011;74171;52.534;13.436;2024-03-06T11:30:18;15.23;;;11.67;;
15293;SDS011;74171;52.534;13.436;2024-03-06T11:32:22;14.47;;;10.83;;
15293;SDS011;74171;52.534;13.436;2024-03-06T11:34:25;16.70;;;12.53;;
15293;SDS011;74171;52.534;13.436;2024-03-06T11:36:28;16.10;;;12.73;;
15293;SDS011;74171;52.534;13.436;2024-03-06T11:38:31;15.83;;;12.40;;
15293;SDS011;74171;52.534;13.436;2024-03-06T11:40:42;16.43;;;12.43;;
15293;SDS011;74171;52.534;13.436;2024-03-06T11:42:46;18.70;;;13.97;;
15293;SDS011;74171;52.534;13.436;2024-03-06T11:44:54;20.10;;;14.60;;
15293;SDS011;74171;52.534;13.436;2024-03-06T11:46:59;18.70;;;13.13;;
15293;SDS011;74171;52.534;13.436;2024-03-06T11:49:02;18.87;;;15.23;;
15293;SDS011;74171;52.534;13.436;2024-03-06T11:51:06;19.77;;;15.47;;
15293;SDS011;74171;52.534;13.436;2024-03-06T11:53:09;20.57;;;15.13;;
15293;SDS011;74171;52.534;13.436;2024-03-06T11:55:13;19.47;;;15.50;;
15293;SDS011;74171;52.534;13.436;2024-03-06T11:57:17;19.90;;;15.90;;
15293;SDS011;74171;52.534;13.436;2024-03-06T11:59:24;22.33;;;16.87;;
15293;SDS011;74171;52.534;13.436;2024-03-06T12:01:27;18.83;;;14.97;;
15293;SDS011;74171;52.534;13.436;2024-03-06T12:03:29;17.87;;;13.57;;
15293;SDS011;74171;52.534;13.436;2024-03-06T12:05:33;13.73;;;11.87;;
15293;SDS011;74171;52.534;13.436;2024-03-06T12:07:44;14.83;;;13.17;;
15293;SDS011;74171;52.534;13.436;2024-03-06T12:09:47;12.40;;;11.00;;